sensor_id;sensor_type;location;lat;lon;timestamp;temperature;humidity
16827;DHT22;8530;49.540;8.576;2023-03-14T00:00:08;11.30;99.90
16827;DHT22;8530;49.540;8.576;2023-03-14T00:02:36;11.30;99.90
16827;DHT22;8530;49.540;8.576;2023-03-14T00:05:03;11.30;99.90
16827;DHT22;8530;49.540;8.576;2023-03-14T00:07:32;11.40;99.90
16827;DHT22;8530;49.540;8.576;2023-03-14T00:10:01;11.40;99.90
16827;DHT22;8530;49.540;8.576;2023-03-14T00:12:29;11.40;99.90
16827;DHT22;8530;49.540;8.576;2023-03-14T00:14:58;11.40;99.90
16827;DHT22;8530;49.540;8.576;2023-03-14T00:17:25;11.40;99.90
16827;DHT22;8530;49.540;8.576;2023-03-14T00:19:52;11.40;99.90
16827;DHT22;8530;49.540;8.576;2023-03-14T00:22:19;11.40;99.90
16827;DHT22;8530;49.540;8.576;2023-03-14T00:24:46;11.40;99.90
16827;DHT22;8530;49.540;8.576;2023-03-14T00:27:13;11.40;99.90
16827;DHT22;8530;49.540;8.576;2023-03-14T00:29:40;11.40;99.90
16827;DHT22;8530;49.540;8.576;2023-03-14T00:32:08;11.40;99.90
16827;DHT22;8530;49.540;8.576;2023-03-14T00:34:35;11.40;99.90
16827;DHT22;8530;49.540;8.576;2023-03-14T00:37:01;11.50;99.90
16827;DHT22;8530;49.540;8.576;2023-03-14T00:39:28;11.50;99.90
16827;DHT22;8530;49.540;8.576;2023-03-14T00:41:54;11.50;99.90
16827;DHT22;8530;49.540;8.576;2023-03-14T00:44:21;11.50;99.90
16827;DHT22;8530;49.540;8.576;2023-03-14T00:46:48;11.50;99.90
16827;DHT22;8530;49.540;8.576;2023-03-14T00:49:16;11.50;99.90
16827;DHT22;8530;49.540;8.576;2023-03-14T00:51:42;11.50;99.90
16827;DHT22;8530;49.540;8.576;2023-03-14T00:54:09;11.50;99.90
16827;DHT22;8530;49.540;8.576;2023-03-14T00:56:36;11.50;99.90
16827;DHT22;8530;49.540;8.576;2023-03-14T00:59:03;11.50;99.90
16827;DHT22;8530;49.540;8.576;2023-03-14T01:01:29;11.50;99.90
16827;DHT22;8530;49.540;8.576;2023-03-14T01:03:56;11.50;99.90
16827;DHT22;8530;49.540;8.576;2023-03-14T01:06:26;11.50;99.90
16827;DHT22;8530;49.540;8.576;2023-03-14T01:08:55;11.40;99.90
16827;DHT22;8530;49.540;8.576;2023-03-14T01:11:23;11.40;99.90
16827;DHT22;8530;49.540;8.576;2023-03-14T01:13:50;11.40;99.90
16827;DHT22;8530;49.540;8.576;2023-03-14T01:16:18;11.40;99.90
16827;DHT22;8530;49.540;8.576;2023-03-14T01:18:46;11.40;99.90
16827;DHT22;8530;49.540;8.576;2023-03-14T01:21:15;11.40;99.90
16827;DHT22;8530;49.540;8.576;2023-03-14T01:23:44;11.40;99.90
16827;DHT22;8530;49.540;8.576;2023-03-14T01:26:13;11.30;99.90
16827;DHT22;8530;49.540;8.576;2023-03-14T01:28:40;11.30;99.90
16827;DHT22;8530;49.540;8.576;2023-03-14T01:31:08;11.30;99.90
16827;DHT22;8530;49.540;8.576;2023-03-14T01:33:36;11.30;99.90
16827;DHT22;8530;49.540;8.576;2023-03-14T01:36:03;11.20;99.90
16827;DHT22;8530;49.540;8.576;2023-03-14T01:38:31;11.30;99.90
16827;DHT22;8530;49.540;8.576;2023-03-14T01:41:00;11.20;99.90
16827;DHT22;8530;49.540;8.576;2023-03-14T01:43:27;11.20;99.90
16827;DHT22;8530;49.540;8.576;2023-03-14T01:46:20;11.20;99.90
16827;DHT22;8530;49.540;8.576;2023-03-14T01:48:51;11.20;99.90
16827;DHT22;8530;49.540;8.576;2023-03-14T01:51:23;11.20;99.90
16827;DHT22;8530;49.540;8.576;2023-03-14T01:53:52;11.20;99.90
16827;DHT22;8530;49.540;8.576;2023-03-14T01:56:22;11.20;99.90
16827;DHT22;8530;49.540;8.576;2023-03-14T01:58:51;11.30;99.90
16827;DHT22;8530;49.540;8.576;2023-03-14T02:01:21;11.30;99.90
16827;DHT22;8530;49.540;8.576;2023-03-14T02:03:53;11.30;99.90
16827;DHT22;8530;49.540;8.576;2023-03-14T02:06:24;11.30;99.90
16827;DHT22;8530;49.540;8.576;2023-03-14T02:08:52;11.30;99.90
16827;DHT22;8530;49.540;8.576;2023-03-14T02:11:21;11.30;99.90
16827;DHT22;8530;49.540;8.576;2023-03-14T02:13:48;11.20;99.90
16827;DHT22;8530;49.540;8.576;2023-03-14T02:16:16;11.20;99.90
16827;DHT22;8530;49.540;8.576;2023-03-14T02:18:43;11.20;99.90
16827;DHT22;8530;49.540;8.576;2023-03-14T02:21:16;11.20;99.90
16827;DHT22;8530;49.540;8.576;2023-03-14T02:23:51;11.20;99.90
16827;DHT22;8530;49.540;8.576;2023-03-14T02:26:23;11.30;99.90
16827;DHT22;8530;49.540;8.576;2023-03-14T02:28:54;11.30;99.90
16827;DHT22;8530;49.540;8.576;2023-03-14T02:31:22;11.40;99.90
16827;DHT22;8530;49.540;8.576;2023-03-14T02:33:50;11.40;99.90
16827;DHT22;8530;49.540;8.576;2023-03-14T02:36:19;11.50;99.90
16827;DHT22;8530;49.540;8.576;2023-03-14T02:38:51;11.50;99.90
16827;DHT22;8530;49.540;8.576;2023-03-14T02:41:19;11.60;99.90
16827;DHT22;8530;49.540;8.576;2023-03-14T02:43:46;11.60;99.90
16827;DHT22;8530;49.540;8.576;2023-03-14T02:46:16;11.60;99.90
16827;DHT22;8530;49.540;8.576;2023-03-14T02:48:47;11.60;99.90
16827;DHT22;8530;49.540;8.576;2023-03-14T02:51:15;11.60;99.90
16827;DHT22;8530;49.540;8.576;2023-03-14T02:53:42;11.60;99.90
16827;DHT22;8530;49.540;8.576;2023-03-14T02:56:09;11.60;99.90
16827;DHT22;8530;49.540;8.576;2023-03-14T02:58:36;11.60;99.90
16827;DHT22;8530;49.540;8.576;2023-03-14T03:01:03;11.60;99.90
16827;DHT22;8530;49.540;8.576;2023-03-14T03:03:32;11.50;99.90
16827;DHT22;8530;49.540;8.576;2023-03-14T03:05:58;11.50;99.90
16827;DHT22;8530;49.540;8.576;2023-03-14T03:08:27;11.50;99.90
16827;DHT22;8530;49.540;8.576;2023-03-14T03:10:54;11.40;99.90
16827;DHT22;8530;49.540;8.576;2023-03-14T03:13:21;11.40;99.90
16827;DHT22;8530;49.540;8.576;2023-03-14T03:15:48;11.30;99.90
16827;DHT22;8530;49.540;8.576;2023-03-14T03:18:15;11.30;99.90
16827;DHT22;8530;49.540;8.576;2023-03-14T03:20:43;11.30;99.90
16827;DHT22;8530;49.540;8.576;2023-03-14T03:23:11;11.30;99.90
16827;DHT22;8530;49.540;8.576;2023-03-14T03:25:37;11.30;99.90
16827;DHT22;8530;49.540;8.576;2023-03-14T03:28:04;11.30;99.90
16827;DHT22;8530;49.540;8.576;2023-03-14T03:30:33;11.30;99.90
16827;DHT22;8530;49.540;8.576;2023-03-14T03:33:00;11.20;99.90
16827;DHT22;8530;49.540;8.576;2023-03-14T03:35:27;11.20;99.90
16827;DHT22;8530;49.540;8.576;2023-03-14T03:37:55;11.20;99.90
16827;DHT22;8530;49.540;8.576;2023-03-14T03:40:21;11.10;99.90
16827;DHT22;8530;49.540;8.576;2023-03-14T03:42:48;11.10;99.90
16827;DHT22;8530;49.540;8.576;2023-03-14T03:45:15;11.10;99.90
16827;DHT22;8530;49.540;8.576;2023-03-14T03:47:42;11.10;99.90
16827;DHT22;8530;49.540;8.576;2023-03-14T03:50:09;11.10;99.90
16827;DHT22;8530;49.540;8.576;2023-03-14T03:52:36;11.00;99.90
16827;DHT22;8530;49.540;8.576;2023-03-14T03:55:05;11.00;99.90
16827;DHT22;8530;49.540;8.576;2023-03-14T03:57:31;11.00;99.90
16827;DHT22;8530;49.540;8.576;2023-03-14T03:59:58;11.00;99.90
16827;DHT22;8530;49.540;8.576;2023-03-14T04:02:25;10.90;99.90
16827;DHT22;8530;49.540;8.576;2023-03-14T04:04:51;10.90;99.90
16827;DHT22;8530;49.540;8.576;2023-03-14T04:07:18;10.90;99.90
16827;DHT22;8530;49.540;8.576;2023-03-14T04:09:45;10.90;99.90
16827;DHT22;8530;49.540;8.576;2023-03-14T04:12:13;10.90;99.90
16827;DHT22;8530;49.540;8.576;2023-03-14T04:14:40;10.90;99.90
16827;DHT22;8530;49.540;8.576;2023-03-14T04:17:07;10.90;99.90
16827;DHT22;8530;49.540;8.576;2023-03-14T04:19:34;11.00;99.90
16827;DHT22;8530;49.540;8.576;2023-03-14T04:22:01;11.00;99.90
16827;DHT22;8530;49.540;8.576;2023-03-14T04:24:27;11.10;99.90
16827;DHT22;8530;49.540;8.576;2023-03-14T04:26:54;11.10;99.90
16827;DHT22;8530;49.540;8.576;2023-03-14T04:29:22;11.20;99.90
16827;DHT22;8530;49.540;8.576;2023-03-14T04:31:49;11.20;99.90
16827;DHT22;8530;49.540;8.576;2023-03-14T04:34:15;11.20;99.90
16827;DHT22;8530;49.540;8.576;2023-03-14T04:36:42;11.20;99.90
16827;DHT22;8530;49.540;8.576;2023-03-14T04:39:09;11.20;99.90
16827;DHT22;8530;49.540;8.576;2023-03-14T04:41:35;11.20;99.90
16827;DHT22;8530;49.540;8.576;2023-03-14T04:44:02;11.10;99.90
16827;DHT22;8530;49.540;8.576;2023-03-14T04:46:31;11.10;99.90
16827;DHT22;8530;49.540;8.576;2023-03-14T04:48:58;11.10;99.90
16827;DHT22;8530;49.540;8.576;2023-03-14T04:51:25;11.20;99.90
16827;DHT22;8530;49.540;8.576;2023-03-14T04:53:53;11.20;99.90
16827;DHT22;8530;49.540;8.576;2023-03-14T04:56:19;11.30;99.90
16827;DHT22;8530;49.540;8.576;2023-03-14T04:58:46;11.30;99.90
16827;DHT22;8530;49.540;8.576;2023-03-14T05:01:13;11.30;99.90
16827;DHT22;8530;49.540;8.576;2023-03-14T05:03:41;11.30;99.90
16827;DHT22;8530;49.540;8.576;2023-03-14T05:06:08;11.40;99.90
16827;DHT22;8530;49.540;8.576;2023-03-14T05:08:35;11.40;99.90
16827;DHT22;8530;49.540;8.576;2023-03-14T05:11:02;11.40;99.90
16827;DHT22;8530;49.540;8.576;2023-03-14T05:13:29;11.50;99.90
16827;DHT22;8530;49.540;8.576;2023-03-14T05:16:03;11.50;99.90
16827;DHT22;8530;49.540;8.576;2023-03-14T05:18:30;11.50;99.90
16827;DHT22;8530;49.540;8.576;2023-03-14T05:20:58;11.50;99.90
16827;DHT22;8530;49.540;8.576;2023-03-14T05:23:25;11.50;99.90
16827;DHT22;8530;49.540;8.576;2023-03-14T05:25:53;11.50;99.90
16827;DHT22;8530;49.540;8.576;2023-03-14T05:28:19;11.50;99.90
16827;DHT22;8530;49.540;8.576;2023-03-14T05:30:46;11.50;99.90
16827;DHT22;8530;49.540;8.576;2023-03-14T05:33:13;11.50;99.90
16827;DHT22;8530;49.540;8.576;2023-03-14T05:35:41;11.50;99.90
16827;DHT22;8530;49.540;8.576;2023-03-14T05:38:09;11.50;99.90
16827;DHT22;8530;49.540;8.576;2023-03-14T05:40:36;11.50;99.90
16827;DHT22;8530;49.540;8.576;2023-03-14T05:43:02;11.50;99.90
16827;DHT22;8530;49.540;8.576;2023-03-14T05:45:29;11.50;99.90
16827;DHT22;8530;49.540;8.576;2023-03-14T05:47:56;11.50;99.90
16827;DHT22;8530;49.540;8.576;2023-03-14T05:50:22;11.50;99.90
16827;DHT22;8530;49.540;8.576;2023-03-14T05:52:49;11.50;99.90
16827;DHT22;8530;49.540;8.576;2023-03-14T05:55:17;11.50;99.90
16827;DHT22;8530;49.540;8.576;2023-03-14T05:57:44;11.50;99.90
16827;DHT22;8530;49.540;8.576;2023-03-14T06:00:11;11.50;99.90
16827;DHT22;8530;49.540;8.576;2023-03-14T06:02:38;11.50;99.90
16827;DHT22;8530;49.540;8.576;2023-03-14T06:05:06;11.50;99.90
16827;DHT22;8530;49.540;8.576;2023-03-14T06:07:32;11.50;99.90
16827;DHT22;8530;49.540;8.576;2023-03-14T06:09:59;11.50;99.90
16827;DHT22;8530;49.540;8.576;2023-03-14T06:12:27;11.50;99.90
16827;DHT22;8530;49.540;8.576;2023-03-14T06:14:54;11.50;99.90
16827;DHT22;8530;49.540;8.576;2023-03-14T06:17:21;11.50;99.90
16827;DHT22;8530;49.540;8.576;2023-03-14T06:19:47;11.50;99.90
16827;DHT22;8530;49.540;8.576;2023-03-14T06:22:14;11.50;99.90
16827;DHT22;8530;49.540;8.576;2023-03-14T06:24:41;11.50;99.90
16827;DHT22;8530;49.540;8.576;2023-03-14T06:27:07;11.60;99.90
16827;DHT22;8530;49.540;8.576;2023-03-14T06:29:35;11.60;99.90
16827;DHT22;8530;49.540;8.576;2023-03-14T06:32:02;11.60;99.90
16827;DHT22;8530;49.540;8.576;2023-03-14T06:34:29;11.70;99.90
16827;DHT22;8530;49.540;8.576;2023-03-14T06:36:56;11.70;99.90
16827;DHT22;8530;49.540;8.576;2023-03-14T06:39:23;11.70;99.90
16827;DHT22;8530;49.540;8.576;2023-03-14T06:41:50;11.80;99.90
16827;DHT22;8530;49.540;8.576;2023-03-14T06:44:16;11.80;99.90
16827;DHT22;8530;49.540;8.576;2023-03-14T06:46:44;11.80;99.90
16827;DHT22;8530;49.540;8.576;2023-03-14T06:49:11;11.80;99.90
16827;DHT22;8530;49.540;8.576;2023-03-14T06:51:38;11.80;99.90
16827;DHT22;8530;49.540;8.576;2023-03-14T06:54:04;11.90;99.90
16827;DHT22;8530;49.540;8.576;2023-03-14T06:56:31;11.90;99.90
16827;DHT22;8530;49.540;8.576;2023-03-14T06:58:58;11.90;99.90
16827;DHT22;8530;49.540;8.576;2023-03-14T07:01:26;11.90;99.90
16827;DHT22;8530;49.540;8.576;2023-03-14T07:03:55;11.90;99.90
16827;DHT22;8530;49.540;8.576;2023-03-14T07:06:21;11.90;99.90
16827;DHT22;8530;49.540;8.576;2023-03-14T07:08:48;11.90;99.90
16827;DHT22;8530;49.540;8.576;2023-03-14T07:11:15;11.90;99.90
16827;DHT22;8530;49.540;8.576;2023-03-14T07:13:42;11.90;99.90
16827;DHT22;8530;49.540;8.576;2023-03-14T07:16:09;11.90;99.90
16827;DHT22;8530;49.540;8.576;2023-03-14T07:18:35;12.00;99.90
16827;DHT22;8530;49.540;8.576;2023-03-14T07:21:04;12.00;99.90
16827;DHT22;8530;49.540;8.576;2023-03-14T07:23:31;12.10;99.90
16827;DHT22;8530;49.540;8.576;2023-03-14T07:25:58;12.10;99.80
16827;DHT22;8530;49.540;8.576;2023-03-14T07:28:24;12.20;99.80
16827;DHT22;8530;49.540;8.576;2023-03-14T07:30:52;12.30;99.70
16827;DHT22;8530;49.540;8.576;2023-03-14T07:33:19;12.40;99.60
16827;DHT22;8530;49.540;8.576;2023-03-14T07:35:47;12.50;99.50
16827;DHT22;8530;49.540;8.576;2023-03-14T07:38:15;12.60;99.40
16827;DHT22;8530;49.540;8.576;2023-03-14T07:40:42;12.60;99.20
16827;DHT22;8530;49.540;8.576;2023-03-14T07:43:08;12.70;99.10
16827;DHT22;8530;49.540;8.576;2023-03-14T07:45:35;12.80;99.00
16827;DHT22;8530;49.540;8.576;2023-03-14T07:48:02;12.90;98.90
16827;DHT22;8530;49.540;8.576;2023-03-14T07:50:29;13.00;98.80
16827;DHT22;8530;49.540;8.576;2023-03-14T07:52:56;13.10;98.70
16827;DHT22;8530;49.540;8.576;2023-03-14T07:55:24;13.30;98.60
16827;DHT22;8530;49.540;8.576;2023-03-14T07:57:50;13.30;98.30
16827;DHT22;8530;49.540;8.576;2023-03-14T08:00:18;13.40;98.20
16827;DHT22;8530;49.540;8.576;2023-03-14T08:02:45;13.50;98.00
16827;DHT22;8530;49.540;8.576;2023-03-14T08:05:11;13.50;97.80
16827;DHT22;8530;49.540;8.576;2023-03-14T08:07:38;13.50;97.60
16827;DHT22;8530;49.540;8.576;2023-03-14T08:10:06;13.50;97.50
16827;DHT22;8530;49.540;8.576;2023-03-14T08:12:35;13.40;97.20
16827;DHT22;8530;49.540;8.576;2023-03-14T08:15:02;13.40;97.10
16827;DHT22;8530;49.540;8.576;2023-03-14T08:17:28;13.40;97.00
16827;DHT22;8530;49.540;8.576;2023-03-14T08:19:55;13.40;96.90
16827;DHT22;8530;49.540;8.576;2023-03-14T08:22:22;13.30;96.80
16827;DHT22;8530;49.540;8.576;2023-03-14T08:24:48;13.30;96.60
16827;DHT22;8530;49.540;8.576;2023-03-14T08:27:15;13.30;96.50
16827;DHT22;8530;49.540;8.576;2023-03-14T08:29:43;13.30;96.50
16827;DHT22;8530;49.540;8.576;2023-03-14T08:32:10;13.40;96.50
16827;DHT22;8530;49.540;8.576;2023-03-14T08:34:37;13.50;96.50
16827;DHT22;8530;49.540;8.576;2023-03-14T08:37:05;13.50;96.30
16827;DHT22;8530;49.540;8.576;2023-03-14T08:39:32;13.50;96.20
16827;DHT22;8530;49.540;8.576;2023-03-14T08:41:58;13.50;96.10
16827;DHT22;8530;49.540;8.576;2023-03-14T08:44:25;13.50;96.00
16827;DHT22;8530;49.540;8.576;2023-03-14T08:46:53;13.50;95.90
16827;DHT22;8530;49.540;8.576;2023-03-14T08:49:20;13.60;95.80
16827;DHT22;8530;49.540;8.576;2023-03-14T08:51:47;13.60;95.70
16827;DHT22;8530;49.540;8.576;2023-03-14T08:54:13;13.50;95.40
16827;DHT22;8530;49.540;8.576;2023-03-14T08:56:40;13.50;95.20
16827;DHT22;8530;49.540;8.576;2023-03-14T08:59:07;13.50;95.10
16827;DHT22;8530;49.540;8.576;2023-03-14T09:01:35;13.50;95.00
16827;DHT22;8530;49.540;8.576;2023-03-14T09:04:03;13.60;95.00
16827;DHT22;8530;49.540;8.576;2023-03-14T09:06:30;13.70;94.90
16827;DHT22;8530;49.540;8.576;2023-03-14T09:08:57;13.80;94.60
16827;DHT22;8530;49.540;8.576;2023-03-14T09:11:24;13.80;94.50
16827;DHT22;8530;49.540;8.576;2023-03-14T09:13:50;13.80;94.40
16827;DHT22;8530;49.540;8.576;2023-03-14T09:16:17;13.90;94.30
16827;DHT22;8530;49.540;8.576;2023-03-14T09:18:44;13.90;94.20
16827;DHT22;8530;49.540;8.576;2023-03-14T09:21:12;13.90;94.00
16827;DHT22;8530;49.540;8.576;2023-03-14T09:23:40;14.00;93.90
16827;DHT22;8530;49.540;8.576;2023-03-14T09:26:07;14.10;93.90
16827;DHT22;8530;49.540;8.576;2023-03-14T09:28:34;14.20;93.60
16827;DHT22;8530;49.540;8.576;2023-03-14T09:31:06;14.20;93.50
16827;DHT22;8530;49.540;8.576;2023-03-14T09:33:33;14.30;93.30
16827;DHT22;8530;49.540;8.576;2023-03-14T09:36:00;14.40;93.10
16827;DHT22;8530;49.540;8.576;2023-03-14T09:38:28;14.40;93.00
16827;DHT22;8530;49.540;8.576;2023-03-14T09:40:55;14.50;92.80
16827;DHT22;8530;49.540;8.576;2023-03-14T09:43:25;14.40;92.40
16827;DHT22;8530;49.540;8.576;2023-03-14T09:45:53;14.30;92.20
16827;DHT22;8530;49.540;8.576;2023-03-14T09:48:22;14.30;92.20
16827;DHT22;8530;49.540;8.576;2023-03-14T09:50:50;14.30;92.10
16827;DHT22;8530;49.540;8.576;2023-03-14T09:53:19;14.40;92.00
16827;DHT22;8530;49.540;8.576;2023-03-14T09:55:50;14.40;92.00
16827;DHT22;8530;49.540;8.576;2023-03-14T09:58:20;14.50;91.80
16827;DHT22;8530;49.540;8.576;2023-03-14T10:00:48;14.50;91.30
16827;DHT22;8530;49.540;8.576;2023-03-14T10:03:31;14.50;91.30
16827;DHT22;8530;49.540;8.576;2023-03-14T10:05:58;14.60;91.30
16827;DHT22;8530;49.540;8.576;2023-03-14T10:08:25;14.50;91.10
16827;DHT22;8530;49.540;8.576;2023-03-14T10:10:53;14.50;91.10
16827;DHT22;8530;49.540;8.576;2023-03-14T10:13:21;14.60;91.20
16827;DHT22;8530;49.540;8.576;2023-03-14T10:15:53;14.70;91.20
16827;DHT22;8530;49.540;8.576;2023-03-14T10:18:21;14.70;91.00
16827;DHT22;8530;49.540;8.576;2023-03-14T10:20:50;14.70;90.90
16827;DHT22;8530;49.540;8.576;2023-03-14T10:23:29;14.80;90.90
16827;DHT22;8530;49.540;8.576;2023-03-14T10:26:07;14.90;91.00
16827;DHT22;8530;49.540;8.576;2023-03-14T10:28:39;14.90;90.90
16827;DHT22;8530;49.540;8.576;2023-03-14T10:31:07;15.00;90.80
16827;DHT22;8530;49.540;8.576;2023-03-14T10:33:35;15.00;90.80
16827;DHT22;8530;49.540;8.576;2023-03-14T10:36:04;15.00;90.70
16827;DHT22;8530;49.540;8.576;2023-03-14T10:38:35;14.90;90.40
16827;DHT22;8530;49.540;8.576;2023-03-14T10:41:15;14.80;90.40
16827;DHT22;8530;49.540;8.576;2023-03-14T10:43:43;14.70;90.30
16827;DHT22;8530;49.540;8.576;2023-03-14T10:46:14;14.50;90.30
16827;DHT22;8530;49.540;8.576;2023-03-14T10:48:42;14.40;90.40
16827;DHT22;8530;49.540;8.576;2023-03-14T10:51:18;14.40;90.50
16827;DHT22;8530;49.540;8.576;2023-03-14T10:53:48;14.30;90.50
16827;DHT22;8530;49.540;8.576;2023-03-14T10:56:18;14.30;90.60
16827;DHT22;8530;49.540;8.576;2023-03-14T10:58:46;14.20;90.70
16827;DHT22;8530;49.540;8.576;2023-03-14T11:01:26;14.10;90.70
16827;DHT22;8530;49.540;8.576;2023-03-14T11:03:57;13.90;90.90
16827;DHT22;8530;49.540;8.576;2023-03-14T11:06:31;13.80;91.00
16827;DHT22;8530;49.540;8.576;2023-03-14T11:09:07;13.60;91.20
16827;DHT22;8530;49.540;8.576;2023-03-14T11:11:39;13.50;91.50
16827;DHT22;8530;49.540;8.576;2023-03-14T11:14:16;13.40;91.70
16827;DHT22;8530;49.540;8.576;2023-03-14T11:16:52;13.30;92.10
16827;DHT22;8530;49.540;8.576;2023-03-14T11:19:27;13.30;92.40
16827;DHT22;8530;49.540;8.576;2023-03-14T11:22:01;13.30;92.70
16827;DHT22;8530;49.540;8.576;2023-03-14T11:24:46;13.30;93.00
16827;DHT22;8530;49.540;8.576;2023-03-14T11:27:21;13.30;93.30
16827;DHT22;8530;49.540;8.576;2023-03-14T11:29:55;13.40;93.50
16827;DHT22;8530;49.540;8.576;2023-03-14T11:32:36;13.40;93.80
16827;DHT22;8530;49.540;8.576;2023-03-14T11:35:16;13.40;93.90
16827;DHT22;8530;49.540;8.576;2023-03-14T11:37:46;13.40;94.00
16827;DHT22;8530;49.540;8.576;2023-03-14T11:40:17;13.40;94.00
16827;DHT22;8530;49.540;8.576;2023-03-14T11:42:49;13.30;94.30
16827;DHT22;8530;49.540;8.576;2023-03-14T11:45:20;13.30;94.40
16827;DHT22;8530;49.540;8.576;2023-03-14T11:47:53;13.20;94.60
16827;DHT22;8530;49.540;8.576;2023-03-14T11:50:23;13.20;94.90
16827;DHT22;8530;49.540;8.576;2023-03-14T11:52:53;13.20;95.10
16827;DHT22;8530;49.540;8.576;2023-03-14T11:55:25;13.10;95.20
16827;DHT22;8530;49.540;8.576;2023-03-14T11:57:58;13.10;95.60
16827;DHT22;8530;49.540;8.576;2023-03-14T12:00:26;13.30;96.10
16827;DHT22;8530;49.540;8.576;2023-03-14T12:02:58;13.50;96.30
16827;DHT22;8530;49.540;8.576;2023-03-14T12:05:39;13.50;96.10
16827;DHT22;8530;49.540;8.576;2023-03-14T12:08:36;13.50;96.10
16827;DHT22;8530;49.540;8.576;2023-03-14T12:11:10;13.40;96.10
16827;DHT22;8530;49.540;8.576;2023-03-14T12:13:40;13.30;95.80
16827;DHT22;8530;49.540;8.576;2023-03-14T12:16:35;13.10;95.60
16827;DHT22;8530;49.540;8.576;2023-03-14T12:19:15;13.10;95.80
16827;DHT22;8530;49.540;8.576;2023-03-14T12:21:54;13.20;95.70
16827;DHT22;8530;49.540;8.576;2023-03-14T12:24:24;13.30;95.60
16827;DHT22;8530;49.540;8.576;2023-03-14T12:26:54;13.50;95.70
16827;DHT22;8530;49.540;8.576;2023-03-14T12:29:22;13.60;95.40
16827;DHT22;8530;49.540;8.576;2023-03-14T12:32:09;13.80;95.30
16827;DHT22;8530;49.540;8.576;2023-03-14T12:34:39;14.00;95.10
16827;DHT22;8530;49.540;8.576;2023-03-14T12:37:14;14.30;94.60
16827;DHT22;8530;49.540;8.576;2023-03-14T12:39:53;14.70;93.80
16827;DHT22;8530;49.540;8.576;2023-03-14T12:42:37;15.00;93.00
16827;DHT22;8530;49.540;8.576;2023-03-14T12:45:23;15.20;91.60
16827;DHT22;8530;49.540;8.576;2023-03-14T12:47:57;15.10;90.10
16827;DHT22;8530;49.540;8.576;2023-03-14T12:50:33;15.00;88.90
16827;DHT22;8530;49.540;8.576;2023-03-14T12:53:20;14.80;87.00
16827;DHT22;8530;49.540;8.576;2023-03-14T12:55:56;14.50;85.20
16827;DHT22;8530;49.540;8.576;2023-03-14T12:58:30;14.50;84.30
16827;DHT22;8530;49.540;8.576;2023-03-14T13:01:02;14.50;84.60
16827;DHT22;8530;49.540;8.576;2023-03-14T13:03:38;14.60;83.40
16827;DHT22;8530;49.540;8.576;2023-03-14T13:06:09;14.70;82.30
16827;DHT22;8530;49.540;8.576;2023-03-14T13:08:38;14.80;80.40
16827;DHT22;8530;49.540;8.576;2023-03-14T13:11:08;14.80;79.80
16827;DHT22;8530;49.540;8.576;2023-03-14T13:13:37;14.90;78.80
16827;DHT22;8530;49.540;8.576;2023-03-14T13:16:15;14.90;78.20
16827;DHT22;8530;49.540;8.576;2023-03-14T13:18:44;14.90;76.80
16827;DHT22;8530;49.540;8.576;2023-03-14T13:21:13;14.70;74.60
16827;DHT22;8530;49.540;8.576;2023-03-14T13:23:41;14.30;73.60
16827;DHT22;8530;49.540;8.576;2023-03-14T13:26:25;14.00;73.20
16827;DHT22;8530;49.540;8.576;2023-03-14T13:28:53;13.80;72.80
16827;DHT22;8530;49.540;8.576;2023-03-14T13:31:24;13.80;73.10
16827;DHT22;8530;49.540;8.576;2023-03-14T13:33:59;13.90;73.30
16827;DHT22;8530;49.540;8.576;2023-03-14T13:36:26;14.00;73.10
16827;DHT22;8530;49.540;8.576;2023-03-14T13:38:58;14.10;71.50
16827;DHT22;8530;49.540;8.576;2023-03-14T13:41:25;14.20;70.30
16827;DHT22;8530;49.540;8.576;2023-03-14T13:43:58;14.20;69.20
16827;DHT22;8530;49.540;8.576;2023-03-14T13:46:29;14.30;68.70
16827;DHT22;8530;49.540;8.576;2023-03-14T13:48:58;14.30;67.90
16827;DHT22;8530;49.540;8.576;2023-03-14T13:51:27;14.40;67.00
16827;DHT22;8530;49.540;8.576;2023-03-14T13:53:57;14.30;65.60
16827;DHT22;8530;49.540;8.576;2023-03-14T13:56:25;14.10;64.50
16827;DHT22;8530;49.540;8.576;2023-03-14T13:58:53;13.90;63.40
16827;DHT22;8530;49.540;8.576;2023-03-14T14:01:23;13.50;62.00
16827;DHT22;8530;49.540;8.576;2023-03-14T14:03:53;13.10;60.70
16827;DHT22;8530;49.540;8.576;2023-03-14T14:06:26;12.80;60.30
16827;DHT22;8530;49.540;8.576;2023-03-14T14:08:54;12.70;59.40
16827;DHT22;8530;49.540;8.576;2023-03-14T14:11:31;12.60;59.30
16827;DHT22;8530;49.540;8.576;2023-03-14T14:13:59;12.80;59.40
16827;DHT22;8530;49.540;8.576;2023-03-14T14:16:28;13.10;59.50
16827;DHT22;8530;49.540;8.576;2023-03-14T14:18:58;13.50;58.90
16827;DHT22;8530;49.540;8.576;2023-03-14T14:21:26;13.90;58.60
16827;DHT22;8530;49.540;8.576;2023-03-14T14:23:53;14.20;57.30
16827;DHT22;8530;49.540;8.576;2023-03-14T14:26:20;14.30;56.20
16827;DHT22;8530;49.540;8.576;2023-03-14T14:28:47;14.40;56.00
16827;DHT22;8530;49.540;8.576;2023-03-14T14:31:24;14.40;55.20
16827;DHT22;8530;49.540;8.576;2023-03-14T14:33:56;14.30;53.50
16827;DHT22;8530;49.540;8.576;2023-03-14T14:36:26;14.10;53.20
16827;DHT22;8530;49.540;8.576;2023-03-14T14:38:57;13.90;51.50
16827;DHT22;8530;49.540;8.576;2023-03-14T14:41:30;13.70;51.30
16827;DHT22;8530;49.540;8.576;2023-03-14T14:43:58;13.50;49.60
16827;DHT22;8530;49.540;8.576;2023-03-14T14:46:28;13.40;49.90
16827;DHT22;8530;49.540;8.576;2023-03-14T14:49:02;13.40;49.90
16827;DHT22;8530;49.540;8.576;2023-03-14T14:51:33;13.40;49.30
16827;DHT22;8530;49.540;8.576;2023-03-14T14:54:10;13.30;48.60
16827;DHT22;8530;49.540;8.576;2023-03-14T14:56:38;13.30;48.70
16827;DHT22;8530;49.540;8.576;2023-03-14T14:59:06;13.20;48.30
16827;DHT22;8530;49.540;8.576;2023-03-14T15:01:35;13.10;47.50
16827;DHT22;8530;49.540;8.576;2023-03-14T15:04:11;12.90;47.20
16827;DHT22;8530;49.540;8.576;2023-03-14T15:06:39;12.90;47.40
16827;DHT22;8530;49.540;8.576;2023-03-14T15:09:10;13.00;47.00
16827;DHT22;8530;49.540;8.576;2023-03-14T15:11:37;13.10;47.10
16827;DHT22;8530;49.540;8.576;2023-03-14T15:14:04;13.10;46.50
16827;DHT22;8530;49.540;8.576;2023-03-14T15:16:32;13.10;45.90
16827;DHT22;8530;49.540;8.576;2023-03-14T15:19:00;13.00;44.90
16827;DHT22;8530;49.540;8.576;2023-03-14T15:21:32;12.80;43.60
16827;DHT22;8530;49.540;8.576;2023-03-14T15:23:59;12.60;44.00
16827;DHT22;8530;49.540;8.576;2023-03-14T15:26:27;12.40;44.60
16827;DHT22;8530;49.540;8.576;2023-03-14T15:28:54;12.40;43.80
16827;DHT22;8530;49.540;8.576;2023-03-14T15:31:21;12.30;43.80
16827;DHT22;8530;49.540;8.576;2023-03-14T15:33:48;12.20;43.00
16827;DHT22;8530;49.540;8.576;2023-03-14T15:36:21;12.10;42.80
16827;DHT22;8530;49.540;8.576;2023-03-14T15:38:51;12.00;42.60
16827;DHT22;8530;49.540;8.576;2023-03-14T15:41:18;11.90;42.70
16827;DHT22;8530;49.540;8.576;2023-03-14T15:43:46;11.90;42.50
16827;DHT22;8530;49.540;8.576;2023-03-14T15:46:13;12.00;42.10
16827;DHT22;8530;49.540;8.576;2023-03-14T15:48:42;12.00;41.70
16827;DHT22;8530;49.540;8.576;2023-03-14T15:51:09;12.20;41.60
16827;DHT22;8530;49.540;8.576;2023-03-14T15:53:36;12.50;42.30
16827;DHT22;8530;49.540;8.576;2023-03-14T15:56:06;12.80;41.60